Time;durP1;ratioP1;P1;durP2;ratioP2;P2;SDS_P1;SDS_P2;PMS_P1;PMS_P2;Temp;Humidity;BMP_temperature;BMP_pressure;BME280_temperature;BME280_humidity;BME280_pressure;Samples;Min_cycle;Max_cycle;Signal;HPM_P1;HPM_P2
2021/11/08 00:01:58;;;;;;;43.93;9.73;;;5.60;99.90;;;;;;5054883;28;20209;-64
2021/11/08 00:04:25;;;;;;;29.27;9.63;;;5.60;1.00;;;;;;5054583;28;20741;-65
2021/11/08 00:06:52;;;;;;;40.97;10.53;;;5.70;53.70;;;;;;5054584;28;20205;-65
2021/11/08 00:09:20;;;;;;;40.30;9.73;;;5.70;99.90;;;;;;5055011;28;20201;-65
2021/11/08 00:11:46;;;;;;;31.37;9.30;;;5.70;99.90;;;;;;5054758;28;20206;-64
2021/11/08 00:14:17;;;;;;;30.67;10.23;;;5.80;99.90;;;;;;5054722;28;20232;-65
2021/11/08 00:16:47;;;;;;;40.33;9.10;;;5.80;99.90;;;;;;5053984;28;20236;-65
2021/11/08 00:22:00;;;;;;;27.03;9.07;;;5.90;99.90;;;;;;5053841;28;20247;-64
2021/11/08 00:24:28;;;;;;;26.37;9.40;;;5.90;99.90;;;;;;5054393;28;20581;-64
2021/11/08 00:26:55;;;;;;;32.63;10.10;;;5.90;99.90;;;;;;5053529;28;20296;-65
2021/11/08 00:29:22;;;;;;;34.67;9.83;;;5.90;99.90;;;;;;5054389;28;20201;-65
2021/11/08 00:31:49;;;;;;;33.23;9.10;;;6.00;99.90;;;;;;5054453;28;20267;-65
2021/11/08 00:34:17;;;;;;;30.43;8.83;;;6.00;99.90;;;;;;5054321;28;20282;-64
2021/11/08 00:36:44;;;;;;;43.73;9.50;;;6.00;99.90;;;;;;5053972;28;20267;-64
2021/11/08 00:39:11;;;;;;;41.00;11.63;;;6.00;99.90;;;;;;5054120;28;20209;-65
2021/11/08 00:41:37;;;;;;;31.50;10.17;;;6.00;99.90;;;;;;5054554;28;20625;-65
2021/11/08 00:44:04;;;;;;;34.87;10.60;;;6.00;99.90;;;;;;5053829;28;20226;-64
2021/11/08 00:46:32;;;;;;;42.60;10.73;;;6.00;99.90;;;;;;5053918;28;20232;-64
2021/11/08 00:48:58;;;;;;;34.20;9.67;;;6.10;99.90;;;;;;5054346;28;20259;-65
2021/11/08 00:51:26;;;;;;;35.30;10.57;;;6.10;99.90;;;;;;5053955;28;20206;-65
2021/11/08 00:53:53;;;;;;;34.87;10.07;;;6.10;99.90;;;;;;5053748;28;20268;-65
2021/11/08 00:56:23;;;;;;;34.33;9.93;;;6.10;99.90;;;;;;5053622;28;20230;-64
2021/11/08 00:58:50;;;;;;;40.27;10.47;;;6.10;99.90;;;;;;5054053;28;20305;-63
2021/11/08 01:01:20;;;;;;;34.90;11.00;;;6.10;1.00;;;;;;5053781;28;20205;-64
2021/11/08 01:03:47;;;;;;;28.23;9.57;;;6.10;1.00;;;;;;5053704;28;20225;-65
2021/11/08 01:06:15;;;;;;;25.80;9.87;;;6.10;1.00;;;;;;5053172;28;20202;-65
2021/11/08 01:08:44;;;;;;;35.63;10.47;;;6.10;1.00;;;;;;5053550;28;20209;-64
2021/11/08 01:11:11;;;;;;;38.57;11.20;;;6.10;68.00;;;;;;5053509;28;20267;-65
2021/11/08 01:13:39;;;;;;;34.10;10.40;;;6.10;99.90;;;;;;5053595;28;20229;-64
2021/11/08 01:16:06;;;;;;;33.70;10.40;;;6.20;99.90;;;;;;5053051;28;20218;-65
2021/11/08 01:18:33;;;;;;;32.53;10.17;;;6.20;92.60;;;;;;5053430;28;20244;-64
2021/11/08 01:21:00;;;;;;;31.07;11.00;;;6.20;89.60;;;;;;5053513;28;20727;-65
2021/11/08 01:23:27;;;;;;;37.03;10.73;;;6.20;93.20;;;;;;5053050;28;20621;-65
2021/11/08 01:25:58;;;;;;;31.00;10.10;;;6.30;53.00;;;;;;5053173;28;20212;-64
2021/11/08 01:28:32;;;;;;;32.67;10.27;;;6.20;41.30;;;;;;5053460;28;20640;-64
2021/11/08 01:31:00;;;;;;;31.87;9.30;;;6.20;31.30;;;;;;5053160;28;20208;-65
2021/11/08 01:33:27;;;;;;;29.07;10.40;;;6.20;1.00;;;;;;5053118;28;20228;-64
2021/11/08 01:36:08;;;;;;;32.90;10.83;;;6.20;1.00;;;;;;5052656;28;20685;-65
2021/11/08 01:38:39;;;;;;;37.50;10.83;;;6.20;1.00;;;;;;5052530;28;20206;-65
2021/11/08 01:41:08;;;;;;;35.70;10.27;;;6.20;1.00;;;;;;5053228;28;20301;-65
2021/11/08 01:43:35;;;;;;;31.47;9.97;;;6.10;1.00;;;;;;5052925;28;20312;-64
2021/11/08 01:46:05;;;;;;;34.50;11.53;;;6.10;16.00;;;;;;5052647;28;20208;-65
2021/11/08 01:48:33;;;;;;;30.43;10.67;;;6.10;29.80;;;;;;5052722;28;20300;-64
2021/11/08 01:51:00;;;;;;;33.40;11.00;;;6.20;45.70;;;;;;5052986;28;20728;-65
2021/11/08 01:53:26;;;;;;;39.27;12.30;;;6.20;52.10;;;;;;5052497;28;20244;-65
2021/11/08 01:55:54;;;;;;;40.13;11.90;;;6.20;79.80;;;;;;5052405;28;20649;-65
2021/11/08 01:58:25;;;;;;;39.10;11.63;;;6.30;7.20;;;;;;5052656;28;20296;-64
2021/11/08 02:00:53;;;;;;;38.43;11.30;;;6.30;1.00;;;;;;5052542;28;20590;-64
2021/11/08 02:03:21;;;;;;;29.30;10.50;;;6.30;1.00;;;;;;5052723;28;20233;-64
2021/11/08 02:05:48;;;;;;;40.10;12.43;;;6.30;1.00;;;;;;5052403;28;20624;-64
2021/11/08 02:08:17;;;;;;;35.80;12.10;;;6.30;1.00;;;;;;5052522;28;20206;-64
2021/11/08 02:10:44;;;;;;;38.90;12.13;;;6.30;1.00;;;;;;5052406;28;20209;-65
2021/11/08 02:13:11;;;;;;;36.23;13.07;;;6.30;1.00;;;;;;5052460;28;20233;-65
2021/11/08 02:15:39;;;;;;;44.37;13.37;;;6.30;53.70;;;;;;5051935;28;20255;-64
2021/11/08 02:18:07;;;;;;;42.23;13.97;;;6.30;99.90;;;;;;5052647;28;20225;-64
2021/11/08 02:20:36;;;;;;;43.23;14.43;;;6.30;99.90;;;;;;5052498;28;20237;-65
2021/11/08 02:23:06;;;;;;;38.00;13.83;;;6.30;99.90;;;;;;5052107;28;20643;-64
2021/11/08 02:25:36;;;;;;;39.07;14.30;;;6.40;99.90;;;;;;5052031;28;20206;-65
2021/11/08 02:28:04;;;;;;;40.27;14.90;;;6.40;99.90;;;;;;5052154;28;20237;-65
2021/11/08 02:30:33;;;;;;;42.73;15.17;;;6.40;99.90;;;;;;5052407;28;20213;-66
2021/11/08 02:33:00;;;;;;;39.97;15.70;;;6.40;99.90;;;;;;5052104;28;20229;-65
2021/11/08 02:35:28;;;;;;;47.33;16.23;;;6.50;99.90;;;;;;5051897;28;20224;-65
2021/11/08 02:37:56;;;;;;;42.93;16.63;;;6.50;99.90;;;;;;5051941;28;20709;-64
2021/11/08 02:40:25;;;;;;;44.47;16.33;;;6.50;99.90;;;;;;5051955;28;20202;-65
2021/11/08 02:42:54;;;;;;;44.73;16.57;;;6.50;99.90;;;;;;5052019;28;20608;-65
2021/11/08 02:45:23;;;;;;;44.90;17.70;;;6.50;99.90;;;;;;5051489;28;20670;-65
2021/11/08 02:47:51;;;;;;;38.90;17.83;;;6.60;99.90;;;;;;5052031;28;20205;-65
2021/11/08 02:50:19;;;;;;;40.67;17.23;;;6.60;99.90;;;;;;5051869;28;20259;-65
2021/11/08 02:52:46;;;;;;;64.27;19.83;;;6.60;99.90;;;;;;5051712;28;20256;-65
2021/11/08 02:55:17;;;;;;;53.33;18.77;;;6.60;99.90;;;;;;5051488;28;20201;-66
2021/11/08 02:57:44;;;;;;;55.43;20.73;;;6.60;34.10;;;;;;5051681;28;20714;-64
2021/11/08 03:00:13;;;;;;;52.43;19.73;;;6.50;24.90;;;;;;5051917;28;20262;-65
2021/11/08 03:02:42;;;;;;;48.57;19.33;;;6.50;17.60;;;;;;5051555;28;20229;-66
2021/11/08 03:05:12;;;;;;;53.47;19.77;;;6.50;1.00;;;;;;5051493;28;20267;-65
2021/11/08 03:07:38;;;;;;;47.90;18.07;;;6.50;1.00;;;;;;5051776;28;20293;-65
2021/11/08 03:10:11;;;;;;;47.83;19.23;;;6.50;1.00;;;;;;5052149;28;20829;-64
2021/11/08 03:12:39;;;;;;;43.80;17.97;;;6.50;99.90;;;;;;5051960;28;20225;-65
2021/11/08 03:15:09;;;;;;;44.20;18.40;;;6.50;99.90;;;;;;5051302;28;20669;-65
2021/11/08 03:17:41;;;;;;;43.43;18.70;;;6.50;1.00;;;;;;5051864;28;20221;-65
2021/11/08 03:20:11;;;;;;;45.53;19.30;;;6.50;1.00;;;;;;5051605;28;20580;-65
2021/11/08 03:22:39;;;;;;;52.37;19.00;;;6.60;1.00;;;;;;5051623;28;20303;-65
2021/11/08 03:25:12;;;;;;;41.13;17.67;;;6.60;99.90;;;;;;5051327;28;20212;-65
2021/11/08 03:27:50;;;;;;;45.70;18.57;;;6.60;99.90;;;;;;5051702;28;20260;-65
2021/11/08 03:30:20;;;;;;;44.80;18.60;;;6.60;99.90;;;;;;5051506;28;20244;-65
2021/11/08 03:32:48;;;;;;;53.07;18.40;;;6.50;99.90;;;;;;5051457;28;20233;-65
2021/11/08 03:35:19;;;;;;;40.97;18.77;;;6.50;99.90;;;;;;5051002;28;20206;-65
2021/11/08 03:37:47;;;;;;;46.73;20.00;;;6.50;99.90;;;;;;5051185;28;20702;-65
2021/11/08 03:40:19;;;;;;;45.63;19.63;;;6.50;1.00;;;;;;5051455;28;20213;-64
2021/11/08 03:42:47;;;;;;;46.40;18.87;;;6.50;1.00;;;;;;5051825;28;20652;-64
2021/11/08 03:45:15;;;;;;;47.30;20.77;;;6.50;99.90;;;;;;5050920;28;20220;-64
2021/11/08 03:47:43;;;;;;;43.30;19.00;;;6.50;1.00;;;;;;5051189;28;20236;-65
2021/11/08 03:50:10;;;;;;;48.20;19.27;;;6.50;1.00;;;;;;5051501;28;20632;-64
2021/11/08 03:52:38;;;;;;;48.00;19.50;;;6.40;1.00;;;;;;5051327;28;20375;-65
2021/11/08 03:55:06;;;;;;;46.90;19.03;;;6.40;1.00;;;;;;5050986;28;20653;-65
2021/11/08 03:57:33;;;;;;;40.33;18.10;;;6.50;1.00;;;;;;5051184;28;20217;-65
2021/11/08 04:00:01;;;;;;;47.47;18.60;;;6.50;1.00;;;;;;5051217;28;20206;-64
2021/11/08 04:02:28;;;;;;;44.97;19.20;;;6.50;1.00;;;;;;5054708;28;20216;-65
2021/11/08 04:04:56;;;;;;;43.77;16.70;;;6.60;99.90;;;;;;5054374;28;20209;-65
2021/11/08 04:07:23;;;;;;;40.77;16.93;;;6.60;99.90;;;;;;5054864;28;20217;-65
2021/11/08 04:09:49;;;;;;;43.77;17.53;;;6.60;99.90;;;;;;5054812;28;20201;-66
2021/11/08 04:12:16;;;;;;;37.47;17.37;;;6.60;71.60;;;;;;5054384;28;20566;-64
2021/11/08 04:14:43;;;;;;;39.23;16.43;;;6.60;58.00;;;;;;5054598;28;20205;-65
2021/11/08 04:17:11;;;;;;;42.83;16.17;;;6.50;65.10;;;;;;5055077;28;20716;-65
2021/11/08 04:19:38;;;;;;;47.10;16.43;;;6.40;96.60;;;;;;5054535;28;20221;-64
2021/11/08 04:22:06;;;;;;;50.77;17.50;;;6.30;49.20;;;;;;5054570;28;20202;-65
2021/11/08 04:24:33;;;;;;;45.43;16.70;;;6.30;99.90;;;;;;5054221;28;20374;-65
2021/11/08 04:27:01;;;;;;;46.10;16.47;;;6.30;89.60;;;;;;5054462;28;20279;-66
2021/11/08 04:29:28;;;;;;;47.27;16.70;;;6.20;66.30;;;;;;5054505;28;20210;-65
2021/11/08 04:31:55;;;;;;;37.70;16.20;;;6.20;35.70;;;;;;5054371;28;20202;-65
2021/11/08 04:34:26;;;;;;;48.53;15.93;;;6.20;1.00;;;;;;5054072;28;20233;-65
2021/11/08 04:39:45;;;;;;;44.80;16.77;;;6.00;1.00;;;;;;5031136;28;20202;-65
2021/11/08 04:42:16;;;;;;;43.03;16.13;;;6.00;1.00;;;;;;5054364;28;20254;-66
2021/11/08 04:44:56;;;;;;;46.50;16.90;;;6.00;15.50;;;;;;5053807;28;20639;-65
2021/11/08 04:50:18;;;;;;;59.60;20.53;;;5.90;99.90;;;;;;5054050;28;20303;-64
2021/11/08 04:53:03;;;;;;;47.47;16.93;;;5.90;99.90;;;;;;5053875;28;20230;-64
2021/11/08 04:55:44;;;;;;;41.80;16.00;;;5.90;99.90;;;;;;5053618;28;20688;-65
2021/11/08 05:22:58;;;;;;;54.87;18.77;;;6.00;1.00;;;;;;5053410;28;20251;-65
2021/11/08 05:27:50;;;;;;;48.07;17.37;;;6.00;1.00;;;;;;5051461;28;20658;-64
2021/11/08 05:28:37;;;;;;;52.77;19.07;;;6.10;1.00;;;;;;5051182;28;20201;-66
2021/11/08 05:31:04;;;;;;;48.70;16.57;;;6.10;20.30;;;;;;5053335;28;20193;-65
2021/11/08 05:33:31;;;;;;;49.33;17.97;;;6.10;22.40;;;;;;5052758;28;20722;-65
2021/11/08 05:35:58;;;;;;;51.00;17.17;;;6.10;68.60;;;;;;5052889;28;20213;-64
2021/11/08 05:38:27;;;;;;;50.40;18.40;;;6.20;78.20;;;;;;5052719;28;20226;-65
2021/11/08 05:40:54;;;;;;;45.97;18.03;;;6.20;31.80;;;;;;5048991;28;20675;-65
2021/11/08 05:43:21;;;;;;;45.17;17.57;;;6.20;29.40;;;;;;5032800;28;20241;-65
2021/11/08 05:45:48;;;;;;;54.50;16.83;;;6.30;9.90;;;;;;5032655;28;20232;-65
2021/11/08 05:48:14;;;;;;;47.87;15.87;;;6.20;16.30;;;;;;5032280;28;20209;-65
2021/11/08 05:50:42;;;;;;;45.83;16.63;;;6.30;82.50;;;;;;5033150;28;20206;-65
2021/11/08 05:53:09;;;;;;;54.70;17.77;;;6.20;99.90;;;;;;5032794;28;20239;-65
2021/11/08 05:55:42;;;;;;;48.30;16.37;;;6.20;99.90;;;;;;5032160;28;20217;-65
2021/11/08 05:58:20;;;;;;;50.23;16.60;;;6.20;99.90;;;;;;5032694;28;20272;-64
2021/11/08 06:50:07;;;;;;;55.07;16.87;;;5.60;99.90;;;;;;5042850;28;20708;-63
2021/11/08 06:52:35;;;;;;;49.00;16.60;;;5.60;99.90;;;;;;5050840;28;21953;-65
2021/11/08 06:55:05;;;;;;;42.80;15.87;;;5.60;99.90;;;;;;5051247;28;20193;-64
2021/11/08 06:57:35;;;;;;;52.37;16.57;;;5.60;99.90;;;;;;5051633;28;20240;-65
2021/11/08 07:00:05;;;;;;;52.07;17.67;;;5.60;99.90;;;;;;5050586;28;20302;-65
2021/11/08 07:02:32;;;;;;;47.40;16.77;;;5.60;99.90;;;;;;5051199;28;20225;-63
2021/11/08 07:04:59;;;;;;;50.37;17.13;;;5.60;99.90;;;;;;5050733;28;20212;-63
2021/11/08 07:07:26;;;;;;;38.23;15.10;;;5.70;99.90;;;;;;5051279;28;20216;-63
2021/11/08 07:09:52;;;;;;;47.70;16.53;;;5.70;99.90;;;;;;5050584;28;20214;-61
2021/11/08 07:12:19;;;;;;;41.63;15.30;;;5.70;99.90;;;;;;5051056;28;20614;-57
2021/11/08 07:14:46;;;;;;;42.17;15.63;;;5.70;99.90;;;;;;5050854;28;20703;-53
2021/11/08 07:17:14;;;;;;;45.27;16.37;;;5.70;99.90;;;;;;5051015;28;20213;-56
2021/11/08 07:19:41;;;;;;;47.53;16.23;;;5.70;99.90;;;;;;5050524;28;20214;-64
2021/11/08 07:22:08;;;;;;;44.93;17.03;;;5.70;99.90;;;;;;5050901;28;20278;-63
2021/11/08 07:24:36;;;;;;;56.40;16.43;;;5.70;99.90;;;;;;5050706;28;20718;-65
2021/11/08 07:27:03;;;;;;;48.60;16.20;;;5.80;99.90;;;;;;5051035;28;20218;-62
2021/11/08 07:29:29;;;;;;;57.77;16.37;;;5.80;99.90;;;;;;5050701;28;20214;-63
2021/11/08 07:31:58;;;;;;;58.57;17.50;;;5.80;99.90;;;;;;5050709;28;20206;-64
2021/11/08 07:34:26;;;;;;;49.50;16.90;;;5.80;99.90;;;;;;5050505;28;20671;-63
2021/11/08 07:36:53;;;;;;;49.40;18.13;;;5.90;99.90;;;;;;5052743;28;20209;-62
2021/11/08 07:39:21;;;;;;;51.43;18.50;;;5.90;99.90;;;;;;5054039;28;20263;-64
2021/11/08 07:41:48;;;;;;;50.97;17.60;;;5.90;99.90;;;;;;5054576;28;20205;-64
2021/11/08 07:44:15;;;;;;;57.20;19.77;;;6.00;99.90;;;;;;5054585;28;20229;-65
2021/11/08 07:46:42;;;;;;;54.13;20.10;;;6.00;1.00;;;;;;5054022;28;20360;-64
2021/11/08 07:49:09;;;;;;;63.13;22.10;;;6.00;1.00;;;;;;5054408;28;20279;-62
2021/11/08 07:51:37;;;;;;;57.40;21.33;;;6.10;1.00;;;;;;5054474;28;20214;-64
2021/11/08 07:54:03;;;;;;;52.40;20.43;;;6.10;1.00;;;;;;5054452;28;20711;-63
2021/11/08 07:56:30;;;;;;;60.03;23.73;;;6.20;1.00;;;;;;5054331;28;20205;-64
2021/11/08 07:58:57;;;;;;;53.17;20.33;;;6.20;1.00;;;;;;5054228;28;20226;-64
2021/11/08 08:01:23;;;;;;;58.70;20.67;;;6.30;1.00;;;;;;5053592;28;20263;-63
2021/11/08 08:03:50;;;;;;;49.77;19.93;;;6.30;1.00;;;;;;5054305;28;20635;-57
2021/11/08 08:06:17;;;;;;;46.90;19.10;;;6.40;1.00;;;;;;5054201;28;20205;-57
2021/11/08 08:08:49;;;;;;;51.67;19.30;;;6.40;1.00;;;;;;5054164;28;20206;-55
2021/11/08 08:11:16;;;;;;;55.47;19.50;;;6.50;1.00;;;;;;5053643;28;20214;-60
2021/11/08 08:13:44;;;;;;;51.07;18.57;;;6.60;1.00;;;;;;5054066;28;20714;-53
2021/11/08 08:16:14;;;;;;;45.77;17.97;;;6.70;1.00;;;;;;5053617;28;20690;-57
2021/11/08 08:18:43;;;;;;;50.57;18.50;;;6.70;1.00;;;;;;5054023;28;20233;-59
2021/11/08 08:21:10;;;;;;;49.13;18.60;;;6.80;1.00;;;;;;5053805;28;20224;-54
2021/11/08 08:23:38;;;;;;;42.07;16.90;;;6.90;1.00;;;;;;5053852;28;20225;-61
2021/11/08 08:26:06;;;;;;;48.50;18.10;;;7.10;1.00;;;;;;5053765;28;20205;-61
2021/11/08 08:28:32;;;;;;;39.87;16.97;;;7.20;1.00;;;;;;5053431;28;20206;-58
2021/11/08 08:30:59;;;;;;;41.23;16.13;;;7.30;99.90;;;;;;5054036;28;20267;-66
2021/11/08 08:33:27;;;;;;;52.97;15.93;;;7.40;99.90;;;;;;5053720;28;20283;-63
2021/11/08 08:35:54;;;;;;;39.50;14.20;;;7.40;99.90;;;;;;5053364;28;20255;-62
2021/11/08 08:38:22;;;;;;;37.03;14.77;;;7.50;43.90;;;;;;5053512;28;20219;-62
2021/11/08 08:40:50;;;;;;;41.73;13.87;;;7.50;1.00;;;;;;5052997;28;20846;-62
2021/11/08 08:43:19;;;;;;;32.00;13.23;;;7.60;99.90;;;;;;5053028;28;20234;-62
2021/11/08 08:45:47;;;;;;;38.03;12.60;;;7.70;99.90;;;;;;5053120;28;20846;-61
2021/11/08 08:48:14;;;;;;;32.97;11.80;;;7.70;1.00;;;;;;5053221;28;20230;-61
2021/11/08 08:50:42;;;;;;;36.07;12.43;;;7.80;1.00;;;;;;5053065;28;20252;-60
2021/11/08 08:53:08;;;;;;;30.33;11.30;;;7.80;99.90;;;;;;5052832;28;20234;-62
2021/11/08 08:55:37;;;;;;;32.43;11.97;;;7.90;72.00;;;;;;5052886;28;20540;-63
2021/11/08 08:58:06;;;;;;;24.03;9.87;;;7.90;1.00;;;;;;5053171;28;20225;-62
2021/11/08 09:00:36;;;;;;;35.00;10.40;;;8.00;1.00;;;;;;5052837;28;20217;-61
2021/11/08 09:03:02;;;;;;;31.73;11.37;;;8.10;1.00;;;;;;5052889;28;20236;-62
2021/11/08 09:05:29;;;;;;;37.13;11.37;;;8.10;1.00;;;;;;5052889;28;20236;-59
2021/11/08 09:07:57;;;;;;;29.67;10.37;;;8.20;99.90;;;;;;5053325;28;20203;-65
2021/11/08 09:10:25;;;;;;;29.83;10.67;;;8.20;99.90;;;;;;5052416;28;20216;-66
2021/11/08 09:12:54;;;;;;;25.47;10.27;;;8.20;99.90;;;;;;5052476;28;20232;-64
2021/11/08 09:15:22;;;;;;;30.97;9.53;;;8.30;99.90;;;;;;5052759;28;20209;-64
2021/11/08 09:17:50;;;;;;;26.80;9.00;;;8.40;1.00;;;;;;5053109;28;20573;-64
2021/11/08 09:20:17;;;;;;;28.60;9.73;;;8.50;1.00;;;;;;5052744;28;20203;-63
2021/11/08 09:22:46;;;;;;;25.57;9.60;;;8.50;1.00;;;;;;5052021;28;20236;-67
2021/11/08 09:25:14;;;;;;;29.93;9.93;;;8.60;1.00;;;;;;5052867;28;20298;-69
2021/11/08 09:27:41;;;;;;;27.33;8.80;;;8.70;1.00;;;;;;5053016;28;20209;-69
2021/11/08 09:30:10;;;;;;;31.90;10.10;;;8.60;1.00;;;;;;5052157;28;20240;-68
2021/11/08 09:32:37;;;;;;;34.40;11.07;;;8.80;1.00;;;;;;5037852;28;20253;-68
2021/11/08 09:35:07;;;;;;;29.87;9.60;;;8.80;99.90;;;;;;5032152;28;20263;-67
2021/11/08 09:37:38;;;;;;;31.30;10.77;;;9.00;99.90;;;;;;5032333;28;20718;-67
2021/11/08 09:40:06;;;;;;;28.53;10.87;;;8.90;99.90;;;;;;5032191;28;20291;-67
2021/11/08 09:42:35;;;;;;;31.30;9.63;;;8.80;99.90;;;;;;5032125;28;20230;-66
2021/11/08 09:45:05;;;;;;;32.17;9.87;;;8.70;99.90;;;;;;5032132;28;20220;-67
2021/11/08 09:47:32;;;;;;;27.30;11.07;;;8.80;99.90;;;;;;5032536;28;20257;-66
2021/11/08 09:50:02;;;;;;;33.40;10.90;;;9.10;1.00;;;;;;5032071;28;20201;-67
2021/11/08 09:52:32;;;;;;;27.87;9.07;;;9.40;1.00;;;;;;5050334;28;20204;-66
2021/11/08 09:55:00;;;;;;;29.30;8.80;;;9.70;99.90;;;;;;5052027;28;20213;-70
2021/11/08 09:57:28;;;;;;;26.00;9.60;;;9.90;99.90;;;;;;5052165;28;20212;-69
2021/11/08 09:59:55;;;;;;;29.17;8.77;;;9.90;99.90;;;;;;5050893;28;20287;-67
2021/11/08 10:02:22;;;;;;;21.83;8.93;;;9.90;99.90;;;;;;5050942;28;20213;-66
2021/11/08 10:04:49;;;;;;;30.73;10.50;;;9.80;99.90;;;;;;5051719;28;20593;-68
2021/11/08 10:07:16;;;;;;;24.77;9.43;;;9.60;96.40;;;;;;5051750;28;20653;-63
2021/11/08 10:09:45;;;;;;;20.87;9.40;;;9.60;99.90;;;;;;5051537;28;20259;-63
2021/11/08 10:12:13;;;;;;;24.57;9.73;;;9.60;99.90;;;;;;5051278;28;20206;-63
2021/11/08 10:14:43;;;;;;;27.43;9.53;;;9.50;99.90;;;;;;5051240;28;20683;-63
2021/11/08 10:17:09;;;;;;;30.70;9.23;;;9.30;99.90;;;;;;5051469;28;20693;-63
2021/11/08 10:19:40;;;;;;;27.67;10.07;;;9.20;99.90;;;;;;5051149;28;20722;-63
2021/11/08 10:22:08;;;;;;;25.93;9.63;;;9.20;99.90;;;;;;5051185;28;20209;-64
2021/11/08 10:24:37;;;;;;;30.07;11.27;;;9.20;99.90;;;;;;5051396;28;20378;-64
2021/11/08 10:27:09;;;;;;;31.90;10.50;;;9.10;99.90;;;;;;5051511;28;20213;-64
2021/11/08 10:29:36;;;;;;;38.63;11.20;;;9.10;1.00;;;;;;5051569;28;20193;-62
2021/11/08 10:32:06;;;;;;;29.43;10.87;;;9.20;1.00;;;;;;5051236;28;20211;-63
2021/11/08 10:34:33;;;;;;;33.40;11.53;;;9.30;90.40;;;;;;5051288;28;20316;-63
2021/11/08 10:37:04;;;;;;;28.07;11.90;;;9.40;1.00;;;;;;5051484;28;20205;-63
2021/11/08 10:39:34;;;;;;;30.97;10.77;;;9.60;1.00;;;;;;5050726;28;20264;-63
2021/11/08 10:42:01;;;;;;;30.20;10.53;;;9.70;99.90;;;;;;5050794;28;20914;-63
2021/11/08 10:44:31;;;;;;;36.33;11.77;;;9.80;99.90;;;;;;5051499;28;20224;-64
2021/11/08 10:47:00;;;;;;;31.80;10.43;;;9.90;99.90;;;;;;5051355;28;20201;-65
2021/11/08 10:49:31;;;;;;;29.30;10.07;;;10.00;99.90;;;;;;5051109;28;20201;-64
2021/11/08 10:52:02;;;;;;;29.83;8.73;;;10.10;99.90;;;;;;5051070;28;20552;-62
2021/11/08 10:54:31;;;;;;;27.77;8.73;;;10.10;99.90;;;;;;5050993;28;20237;-64
2021/11/08 10:57:01;;;;;;;25.83;8.10;;;10.20;99.90;;;;;;5050728;28;20212;-63
2021/11/08 10:59:32;;;;;;;25.27;8.27;;;10.30;75.20;;;;;;5048995;28;20229;-65
2021/11/08 11:02:00;;;;;;;22.93;7.60;;;10.30;51.30;;;;;;5050958;28;20202;-64
2021/11/08 11:04:33;;;;;;;22.43;7.87;;;10.30;50.90;;;;;;5050963;28;20295;-65
2021/11/08 11:07:00;;;;;;;23.63;8.67;;;10.20;43.60;;;;;;5049876;28;20209;-64
2021/11/08 11:09:32;;;;;;;30.17;8.80;;;10.30;52.20;;;;;;5051323;28;20205;-64
2021/11/08 11:12:09;;;;;;;28.20;8.90;;;10.30;16.20;;;;;;5055465;28;20220;-64
2021/11/08 11:14:38;;;;;;;21.53;7.77;;;10.30;18.90;;;;;;5054789;28;20275;-63
2021/11/08 11:17:07;;;;;;;27.83;10.70;;;10.30;4.10;;;;;;5054966;28;20216;-64
2021/11/08 11:19:36;;;;;;;28.10;9.23;;;10.40;1.00;;;;;;5055027;28;20302;-64
2021/11/08 11:22:08;;;;;;;22.40;8.53;;;10.50;4.00;;;;;;5055076;28;20212;-65
2021/11/08 11:24:43;;;;;;;30.43;9.10;;;10.60;4.30;;;;;;5054967;28;20265;-66
2021/11/08 11:27:14;;;;;;;24.87;8.20;;;10.80;4.30;;;;;;5057522;28;20205;-63
2021/11/08 11:29:43;;;;;;;29.63;8.70;;;10.90;4.40;;;;;;5056210;28;20247;-64
2021/11/08 11:32:19;;;;;;;29.93;8.37;;;11.00;1.00;;;;;;5055345;28;20209;-68
2021/11/08 11:34:47;;;;;;;25.30;9.80;;;11.00;1.00;;;;;;5056114;28;20216;-67
2021/11/08 11:37:15;;;;;;;25.57;9.07;;;10.90;1.00;;;;;;5055787;28;20574;-67
2021/11/08 11:39:42;;;;;;;33.10;10.10;;;10.80;1.00;;;;;;5054689;28;20224;-65
2021/11/08 11:42:09;;;;;;;28.20;9.33;;;10.70;1.00;;;;;;5054711;28;20210;-66
2021/11/08 11:44:35;;;;;;;24.67;9.00;;;10.70;1.00;;;;;;5054496;28;20236;-65
2021/11/08 11:47:14;;;;;;;25.03;9.60;;;10.70;1.00;;;;;;5054637;28;20217;-65
2021/11/08 11:49:42;;;;;;;27.70;10.10;;;10.70;1.00;;;;;;5054725;28;20254;-66
2021/11/08 11:52:09;;;;;;;22.27;9.10;;;10.80;1.00;;;;;;5054527;28;20301;-65
2021/11/08 11:54:36;;;;;;;21.23;9.00;;;10.80;1.00;;;;;;5054396;28;20792;-66
2021/11/08 11:57:04;;;;;;;20.07;8.67;;;10.80;1.00;;;;;;5054531;28;20220;-65
2021/11/08 11:59:31;;;;;;;27.40;8.97;;;10.90;1.00;;;;;;5055204;28;20668;-65
2021/11/08 12:01:58;;;;;;;28.33;9.73;;;10.90;1.00;;;;;;5054717;28;20551;-63
2021/11/08 12:04:27;;;;;;;28.67;9.83;;;11.00;1.00;;;;;;5054293;28;20229;-64
2021/11/08 12:06:58;;;;;;;28.70;11.73;;;11.00;1.00;;;;;;5054076;28;20263;-65
2021/11/08 12:09:25;;;;;;;30.47;10.73;;;10.90;1.00;;;;;;5053604;28;20206;-63
2021/11/08 12:11:54;;;;;;;26.43;11.63;;;10.70;1.00;;;;;;5054501;28;20213;-64
2021/11/08 12:14:23;;;;;;;26.47;11.63;;;10.70;1.00;;;;;;5054411;28;20233;-63
2021/11/08 12:16:56;;;;;;;29.80;11.33;;;10.70;1.00;;;;;;5053845;28;20223;-64
2021/11/08 12:19:27;;;;;;;24.90;10.83;;;10.70;1.00;;;;;;5054326;28;20217;-64
2021/11/08 12:21:54;;;;;;;30.33;11.17;;;10.70;1.00;;;;;;5052935;28;20209;-63
2021/11/08 12:24:24;;;;;;;30.57;11.87;;;10.70;1.00;;;;;;5053950;28;20234;-64
2021/11/08 12:27:04;;;;;;;23.03;10.47;;;10.70;1.00;;;;;;5053912;28;20194;-65
2021/11/08 12:29:31;;;;;;;21.77;10.20;;;10.70;1.00;;;;;;5053913;28;20213;-66
2021/11/08 12:32:03;;;;;;;22.07;10.20;;;10.80;1.00;;;;;;5053936;28;20212;-64
2021/11/08 12:34:39;;;;;;;29.83;11.03;;;10.80;1.00;;;;;;5053357;28;20318;-64
2021/11/08 12:37:06;;;;;;;22.67;10.13;;;10.80;1.00;;;;;;5053835;28;20694;-65
2021/11/08 12:39:33;;;;;;;22.23;10.53;;;10.80;1.00;;;;;;5053251;28;20705;-64
2021/11/08 12:42:04;;;;;;;25.13;10.30;;;10.70;1.00;;;;;;5053847;28;20217;-64
2021/11/08 12:44:37;;;;;;;29.67;11.17;;;10.60;1.00;;;;;;5053443;28;20267;-63
2021/11/08 12:47:06;;;;;;;26.27;9.57;;;10.50;1.00;;;;;;5054133;28;20210;-64
2021/11/08 12:49:37;;;;;;;20.83;8.90;;;10.60;1.00;;;;;;5054244;28;20229;-65
2021/11/08 12:52:10;;;;;;;21.87;8.43;;;10.60;1.00;;;;;;5053834;28;20548;-64
2021/11/08 12:54:47;;;;;;;20.33;9.50;;;10.60;1.00;;;;;;5053375;28;20237;-64
2021/11/08 12:57:15;;;;;;;22.07;9.20;;;10.50;1.00;;;;;;5053477;28;20255;-64
2021/11/08 12:59:44;;;;;;;24.53;10.87;;;10.50;1.00;;;;;;5053409;28;20287;-66
2021/11/08 13:02:25;;;;;;;24.03;10.33;;;10.60;1.00;;;;;;5053417;28;20210;-65
2021/11/08 13:04:55;;;;;;;28.60;12.07;;;10.60;1.00;;;;;;5052990;28;20215;-65
2021/11/08 13:07:23;;;;;;;25.00;8.83;;;10.60;1.00;;;;;;5053383;28;20213;-65
2021/11/08 13:09:51;;;;;;;22.30;9.60;;;10.50;1.00;;;;;;5052836;28;20255;-65
2021/11/08 13:12:21;;;;;;;24.10;8.87;;;10.50;1.00;;;;;;5053124;28;20210;-66
2021/11/08 13:14:59;;;;;;;24.80;9.63;;;10.30;1.00;;;;;;5052677;28;20674;-64
2021/11/08 13:17:26;;;;;;;28.03;9.20;;;10.20;1.00;;;;;;5053299;28;20256;-65
2021/11/08 13:19:57;;;;;;;28.80;9.13;;;10.20;1.00;;;;;;5052668;28;20225;-65
2021/11/08 13:22:27;;;;;;;30.87;9.37;;;10.20;1.00;;;;;;5052602;28;20206;-65
2021/11/08 13:25:05;;;;;;;28.10;9.47;;;10.20;1.00;;;;;;5052438;28;20216;-65
2021/11/08 13:27:32;;;;;;;22.20;8.53;;;10.20;1.00;;;;;;5052916;28;20243;-65
2021/11/08 13:30:01;;;;;;;26.50;8.87;;;10.10;1.00;;;;;;5052578;28;20209;-65
2021/11/08 13:32:29;;;;;;;32.17;8.83;;;10.20;1.00;;;;;;5052401;28;20260;-67
2021/11/08 13:35:06;;;;;;;30.40;9.30;;;10.30;1.00;;;;;;5051584;28;20838;-67
2021/11/08 13:37:37;;;;;;;22.80;9.17;;;10.30;1.00;;;;;;5052737;28;20225;-64
2021/11/08 13:40:29;;;;;;;25.23;9.23;;;10.30;1.00;;;;;;5052457;28;20283;-64
2021/11/08 13:43:06;;;;;;;26.33;9.07;;;10.40;1.00;;;;;;5042173;28;20768;-65
2021/11/08 13:45:52;;;;;;;25.13;8.27;;;10.50;1.00;;;;;;5052097;28;20213;-63
2021/11/08 13:48:23;;;;;;;26.03;8.17;;;10.50;1.00;;;;;;5052480;28;20292;-64
2021/11/08 13:50:51;;;;;;;25.30;8.20;;;10.40;1.00;;;;;;5051950;28;20210;-64
2021/11/08 13:53:22;;;;;;;21.43;7.60;;;10.50;1.00;;;;;;5052291;28;20629;-64
2021/11/08 13:55:49;;;;;;;29.50;7.73;;;10.50;1.00;;;;;;5051739;28;20658;-64
2021/11/08 13:58:19;;;;;;;22.63;7.70;;;10.40;1.00;;;;;;5047990;28;20217;-64
2021/11/08 14:00:45;;;;;;;24.73;7.00;;;10.40;1.00;;;;;;5031738;28;20230;-65
2021/11/08 14:03:14;;;;;;;19.97;7.23;;;10.30;1.00;;;;;;5032227;28;20222;-63
2021/11/08 14:05:47;;;;;;;29.03;8.13;;;10.30;1.00;;;;;;5031995;28;20240;-64
2021/11/08 14:08:20;;;;;;;27.27;7.13;;;10.40;1.00;;;;;;5032088;28;20236;-66
2021/11/08 14:10:54;;;;;;;23.77;7.33;;;10.30;1.00;;;;;;5032080;28;20186;-66
2021/11/08 14:13:29;;;;;;;21.80;7.50;;;10.40;1.00;;;;;;5032026;28;20276;-67
2021/11/08 14:16:01;;;;;;;28.53;7.10;;;10.40;1.00;;;;;;5031911;28;20624;-67